Time;durP1;ratioP1;P1;durP2;ratioP2;P2;SDS_P1;SDS_P2;PMS_P1;PMS_P2;Temp;Humidity;BMP_temperature;BMP_pressure;BME280_temperature;BME280_humidity;BME280_pressure;Samples;Min_cycle;Max_cycle;Signal;HPM_P1;HPM_P2
2023/01/25 00:01:47;;;;;;;13.63;8.33;;;;;;;3.88;81.23;100933.09;5042299;28;20615;-53
2023/01/25 00:04:14;;;;;;;11.57;7.73;;;;;;;3.94;82.11;100933.50;5042101;28;20271;-54
2023/01/25 00:06:40;;;;;;;11.83;9.37;;;;;;;3.90;82.26;100929.00;5043374;28;20196;-54
2023/01/25 00:09:07;;;;;;;11.63;9.40;;;;;;;3.81;82.54;100925.88;5041092;28;20224;-55
2023/01/25 00:11:34;;;;;;;12.43;8.10;;;;;;;3.95;82.84;100944.56;5041304;28;20677;-54
2023/01/25 00:14:01;;;;;;;12.07;8.73;;;;;;;3.85;83.58;100935.44;5042248;28;20747;-54
2023/01/25 00:16:28;;;;;;;11.37;7.70;;;;;;;3.88;83.55;100937.31;5039735;28;20190;-54
2023/01/25 00:18:56;;;;;;;10.87;7.43;;;;;;;3.89;83.29;100942.50;5041479;28;20252;-55
2023/01/25 00:21:25;;;;;;;14.30;9.57;;;;;;;3.41;84.70;100909.63;5049023;28;20668;-53
2023/01/25 00:23:52;;;;;;;14.67;9.63;;;;;;;3.54;85.18;100932.53;5038269;28;20201;-54
2023/01/25 00:26:20;;;;;;;10.57;7.80;;;;;;;3.74;85.45;100932.97;5033188;28;20191;-54
2023/01/25 00:28:49;;;;;;;12.00;8.30;;;;;;;3.81;85.44;100933.50;5032500;28;20223;-54
2023/01/25 00:31:21;;;;;;;12.17;8.87;;;;;;;3.90;85.15;100938.31;5032734;28;20195;-54
2023/01/25 00:33:52;;;;;;;15.93;9.90;;;;;;;3.81;84.65;100928.41;5033005;28;20202;-54
2023/01/25 00:36:34;;;;;;;18.73;11.03;;;;;;;3.87;84.92;100931.38;5042247;28;20758;-54
2023/01/25 00:39:01;;;;;;;15.10;9.67;;;;;;;3.95;85.14;100935.28;5052548;28;20201;-54
2023/01/25 00:41:28;;;;;;;12.60;9.40;;;;;;;3.97;83.95;100941.34;5052203;28;20650;-54
2023/01/25 00:43:55;;;;;;;11.93;8.47;;;;;;;3.95;84.02;100944.56;5052231;28;20187;-56
2023/01/25 00:46:21;;;;;;;12.93;7.73;;;;;;;3.90;83.44;100944.25;5052430;28;20188;-54
2023/01/25 00:48:49;;;;;;;9.87;6.73;;;;;;;3.93;83.53;100946.09;5052515;28;20236;-54
2023/01/25 00:51:16;;;;;;;8.77;6.43;;;;;;;3.70;83.66;100936.09;5043297;28;20200;-53
2023/01/25 00:53:44;;;;;;;11.53;7.07;;;;;;;3.85;83.64;100935.44;5031941;28;20569;-54
2023/01/25 00:56:11;;;;;;;8.67;6.77;;;;;;;3.65;83.37;100902.78;5032208;28;20272;-55
2023/01/25 00:58:38;;;;;;;7.83;5.97;;;;;;;3.88;82.93;100950.91;5032769;28;20561;-54
2023/01/25 01:01:05;;;;;;;8.37;6.93;;;;;;;3.83;82.59;100942.09;5032055;28;20616;-53
2023/01/25 01:03:32;;;;;;;10.43;7.03;;;;;;;3.87;82.84;100941.53;5032265;28;20196;-54
2023/01/25 01:06:05;;;;;;;8.30;6.80;;;;;;;3.88;83.32;100940.72;5032215;28;20194;-54
2023/01/25 01:08:35;;;;;;;9.40;7.00;;;;;;;3.61;82.49;100905.00;5032138;28;20233;-54
2023/01/25 01:11:06;;;;;;;9.70;7.20;;;;;;;3.73;83.05;100931.22;5032475;28;20191;-54
2023/01/25 01:13:33;;;;;;;9.90;7.60;;;;;;;3.72;83.74;100919.28;5032537;28;20190;-54
2023/01/25 01:16:02;;;;;;;7.53;6.80;;;;;;;3.91;83.38;100937.50;5032211;28;20350;-54
2023/01/25 01:18:29;;;;;;;11.67;7.87;;;;;;;3.88;83.24;100938.19;5032094;28;20256;-54
2023/01/25 01:20:56;;;;;;;10.88;8.60;;;;;;;3.88;83.33;100928.03;5032036;28;20432;-54
2023/01/25 01:23:23;;;;;;;9.17;7.87;;;;;;;3.92;83.27;100924.91;5031747;28;20200;-54
2023/01/25 01:25:49;;;;;;;10.33;7.70;;;;;;;3.94;83.86;100918.25;5032106;28;20197;-54
2023/01/25 01:28:18;;;;;;;12.40;8.73;;;;;;;3.98;82.50;100919.34;5032117;28;20240;-54
2023/01/25 01:30:44;;;;;;;10.40;7.70;;;;;;;4.04;82.02;100910.44;5032271;28;20195;-54
2023/01/25 01:33:11;;;;;;;13.20;8.53;;;;;;;3.84;81.81;100913.38;5033754;28;20199;-54
2023/01/25 01:35:38;;;;;;;12.70;9.43;;;;;;;3.96;82.21;100911.59;5039594;28;20222;-54
2023/01/25 01:38:05;;;;;;;12.43;8.50;;;;;;;3.98;81.86;100907.47;5052439;28;20198;-54
2023/01/25 01:40:31;;;;;;;12.30;8.77;;;;;;;3.89;81.83;100911.13;5051640;28;20201;-54
2023/01/25 01:43:00;;;;;;;9.50;7.83;;;;;;;3.87;81.51;100905.94;5051991;28;20197;-53
2023/01/25 01:45:52;;;;;;;9.17;7.20;;;;;;;3.85;81.32;100917.66;5051953;28;20191;-55
2023/01/25 01:48:27;;;;;;;8.83;6.53;;;;;;;3.71;81.13;100905.69;5052097;28;20218;-54
2023/01/25 01:50:58;;;;;;;8.33;6.17;;;;;;;3.75;81.78;100907.66;5051841;28;20197;-54
2023/01/25 01:53:27;;;;;;;9.37;6.57;;;;;;;3.82;81.22;100909.81;5051561;28;20219;-54
2023/01/25 01:55:59;;;;;;;8.57;6.23;;;;;;;3.74;80.69;100890.66;5051609;28;20246;-54
2023/01/25 01:58:26;;;;;;;7.23;5.77;;;;;;;3.81;80.90;100903.00;5051906;28;20184;-53
2023/01/25 02:00:54;;;;;;;7.30;5.80;;;;;;;3.83;81.35;100908.16;5051257;28;20501;-54
2023/01/25 02:03:22;;;;;;;6.97;5.87;;;;;;;3.75;80.72;100905.13;5051614;28;20431;-54
2023/01/25 02:05:57;;;;;;;5.80;5.10;;;;;;;3.82;80.99;100907.28;5051539;28;20193;-53
2023/01/25 02:08:26;;;;;;;7.60;5.67;;;;;;;3.78;80.16;100910.41;5042729;28;20720;-54
2023/01/25 02:10:53;;;;;;;6.07;5.00;;;;;;;3.81;80.71;100905.53;5043884;28;20576;-53
2023/01/25 02:13:20;;;;;;;7.60;5.03;;;;;;;3.89;80.48;100913.66;5040667;28;20190;-55
2023/01/25 02:15:50;;;;;;;5.97;4.80;;;;;;;3.90;79.97;100893.41;5040617;28;20195;-54
2023/01/25 02:18:19;;;;;;;6.53;5.40;;;;;;;3.91;79.88;100899.38;5039126;28;20665;-53
2023/01/25 02:20:48;;;;;;;9.63;6.50;;;;;;;3.77;79.62;100902.69;5039414;28;20187;-52
2023/01/25 02:23:23;;;;;;;7.53;6.00;;;;;;;3.58;79.56;100860.81;5041976;28;20193;-53
2023/01/25 02:25:52;;;;;;;9.20;6.23;;;;;;;3.81;80.74;100891.94;5044330;28;20588;-55
2023/01/25 02:28:24;;;;;;;8.33;6.03;;;;;;;3.84;80.21;100893.03;5041844;28;20216;-53
2023/01/25 02:30:50;;;;;;;8.73;5.57;;;;;;;3.87;79.91;100890.69;5048530;28;20622;-52
2023/01/25 02:33:17;;;;;;;8.77;5.60;;;;;;;3.86;79.16;100896.53;5054870;28;20203;-53
2023/01/25 02:35:47;;;;;;;7.67;5.87;;;;;;;3.82;79.44;100898.78;5054600;28;20217;-52
2023/01/25 02:38:16;;;;;;;10.20;6.53;;;;;;;3.76;79.08;100901.81;5054799;28;20192;-52
2023/01/25 02:40:46;;;;;;;9.07;5.70;;;;;;;3.81;79.26;100904.66;5054514;28;20201;-52
2023/01/25 02:43:16;;;;;;;7.40;5.83;;;;;;;3.80;78.69;100896.13;5055315;28;20192;-52
2023/01/25 02:45:45;;;;;;;9.43;6.53;;;;;;;3.86;79.54;100899.09;5054753;28;20188;-52
2023/01/25 02:48:12;;;;;;;6.47;5.20;;;;;;;3.90;78.79;100890.84;5054439;28;20295;-52
2023/01/25 02:50:39;;;;;;;7.37;5.47;;;;;;;3.92;77.96;100902.03;5054507;28;20190;-53
2023/01/25 02:53:06;;;;;;;8.17;5.80;;;;;;;3.89;78.00;100899.28;5054506;28;20251;-53
2023/01/25 02:55:33;;;;;;;8.43;6.10;;;;;;;3.83;77.93;100883.63;5054284;28;20185;-52
2023/01/25 02:57:59;;;;;;;9.30;6.27;;;;;;;3.76;77.90;100890.78;5054492;28;20223;-52
2023/01/25 03:00:28;;;;;;;6.73;5.80;;;;;;;3.83;77.64;100890.38;5054213;28;20196;-52
2023/01/25 03:02:54;;;;;;;8.07;5.03;;;;;;;3.98;77.55;100897.31;5054490;28;20197;-53
2023/01/25 03:05:21;;;;;;;7.40;5.80;;;;;;;3.89;77.87;100891.66;5054161;28;20656;-52
2023/01/25 03:07:48;;;;;;;8.07;5.87;;;;;;;3.96;77.30;100891.25;5053931;28;20200;-53
2023/01/25 03:10:15;;;;;;;6.83;5.53;;;;;;;3.99;76.80;100901.63;5054283;28;20247;-53
2023/01/25 03:12:42;;;;;;;6.70;5.30;;;;;;;4.02;76.46;100909.47;5054031;28;20195;-52
2023/01/25 03:15:09;;;;;;;9.60;7.10;;;;;;;4.05;76.67;100901.16;5053982;28;20190;-53
2023/01/25 03:17:37;;;;;;;12.60;8.37;;;;;;;4.04;76.61;100899.38;5054088;28;20610;-52
2023/01/25 03:20:05;;;;;;;7.80;6.43;;;;;;;4.02;76.25;100893.31;5053930;28;20196;-53
2023/01/25 03:22:32;;;;;;;11.57;7.87;;;;;;;4.15;76.74;100898.41;5053756;28;20618;-52
2023/01/25 03:24:58;;;;;;;7.00;5.60;;;;;;;4.17;76.56;100892.63;5054318;28;20190;-52
2023/01/25 03:27:25;;;;;;;10.20;7.20;;;;;;;4.17;76.05;100891.78;5053952;28;20316;-53
2023/01/25 03:29:52;;;;;;;10.10;7.37;;;;;;;4.16;75.42;100887.44;5053593;28;20214;-53
2023/01/25 03:32:19;;;;;;;17.23;9.50;;;;;;;4.20;75.32;100893.63;5053765;28;20190;-53
2023/01/25 03:34:47;;;;;;;16.37;9.97;;;;;;;4.18;74.79;100893.50;5052430;28;20696;-53
2023/01/25 03:37:14;;;;;;;10.83;8.13;;;;;;;4.15;75.30;100888.22;5053788;28;20226;-52
2023/01/25 03:39:41;;;;;;;14.63;6.87;;;;;;;3.93;75.36;100890.19;5054354;28;20194;-52
2023/01/25 03:42:07;;;;;;;14.13;9.50;;;;;;;3.88;75.42;100894.97;5053974;28;20192;-52
2023/01/25 03:44:34;;;;;;;19.17;12.17;;;;;;;3.88;75.86;100892.44;5049226;28;20189;-53
2023/01/25 03:47:01;;;;;;;9.90;7.17;;;;;;;3.57;75.50;100848.03;5053261;28;20207;-52
2023/01/25 03:49:28;;;;;;;10.10;7.47;;;;;;;3.85;75.56;100897.31;5053341;28;20217;-52
2023/01/25 03:51:57;;;;;;;8.97;6.13;;;;;;;3.94;75.62;100892.84;5053393;28;20194;-52
2023/01/25 03:54:24;;;;;;;11.20;6.63;;;;;;;4.02;75.63;100898.41;5053631;28;20247;-52
2023/01/25 03:56:51;;;;;;;8.70;6.10;;;;;;;4.05;74.84;100896.94;5053392;28;20188;-52
2023/01/25 03:59:18;;;;;;;10.47;6.00;;;;;;;4.06;73.87;100898.72;5053112;28;20200;-53
2023/01/25 04:01:44;;;;;;;10.95;7.63;;;;;;;4.09;74.42;100903.97;5052635;28;20440;-53
2023/01/25 04:04:11;;;;;;;10.57;7.67;;;;;;;4.13;73.43;100903.41;5052167;28;20673;-53
2023/01/25 04:06:38;;;;;;;8.57;6.33;;;;;;;4.05;73.07;100901.16;5053724;28;20191;-53
2023/01/25 04:09:07;;;;;;;10.03;6.50;;;;;;;4.00;73.32;100893.22;5053297;28;20212;-52
2023/01/25 04:11:34;;;;;;;9.57;7.23;;;;;;;4.02;74.25;100908.56;5053041;28;20197;-53
2023/01/25 04:14:01;;;;;;;7.20;5.97;;;;;;;4.06;74.28;100901.25;5052949;28;20192;-52
2023/01/25 04:16:29;;;;;;;10.77;6.90;;;;;;;4.08;74.11;100902.22;5052626;28;20571;-52
2023/01/25 04:18:56;;;;;;;8.67;7.07;;;;;;;4.19;73.65;100902.91;5053168;28;20201;-52
2023/01/25 04:21:23;;;;;;;10.43;6.33;;;;;;;4.00;73.90;100899.97;5052631;28;20185;-53
2023/01/25 04:23:49;;;;;;;9.10;5.70;;;;;;;3.88;74.31;100904.25;5053545;28;20203;-53
2023/01/25 04:26:18;;;;;;;7.13;5.50;;;;;;;3.93;74.92;100896.16;5052739;28;20743;-53
2023/01/25 04:28:44;;;;;;;9.97;6.17;;;;;;;3.85;75.45;100907.47;5052845;28;20735;-53
2023/01/25 04:31:11;;;;;;;6.57;4.70;;;;;;;3.80;76.40;100908.84;5052604;28;20262;-53
2023/01/25 04:33:38;;;;;;;6.13;5.13;;;;;;;3.88;76.59;100911.88;5052571;28;20199;-52
2023/01/25 04:36:05;;;;;;;7.87;5.27;;;;;;;3.84;76.60;100905.75;5052479;28;20222;-52
2023/01/25 04:38:32;;;;;;;7.40;5.03;;;;;;;3.81;76.57;100907.19;5052641;28;20193;-53
2023/01/25 04:40:59;;;;;;;7.70;4.93;;;;;;;3.68;76.21;100919.88;5052492;28;20190;-55
2023/01/25 04:43:27;;;;;;;6.53;5.00;;;;;;;3.47;76.96;100910.06;5052128;28;20192;-53
2023/01/25 04:45:54;;;;;;;7.60;5.00;;;;;;;3.51;77.19;100918.75;5051770;28;20195;-53
2023/01/25 04:48:21;;;;;;;6.40;5.23;;;;;;;3.41;76.95;100893.50;5052676;28;20666;-53
2023/01/25 04:50:48;;;;;;;6.23;4.80;;;;;;;3.51;76.79;100914.56;5052197;28;20202;-53
2023/01/25 04:53:15;;;;;;;7.10;4.57;;;;;;;3.56;77.49;100918.28;5052248;28;20190;-52
2023/01/25 04:55:46;;;;;;;8.20;5.43;;;;;;;3.58;77.08;100914.19;5052137;28;20660;-53
2023/01/25 04:58:12;;;;;;;8.07;6.80;;;;;;;3.81;76.87;100913.16;5050297;28;20501;-54
2023/01/25 05:00:41;;;;;;;7.43;6.63;;;;;;;3.89;75.84;100904.38;5036955;28;20262;-53
2023/01/25 05:03:07;;;;;;;8.03;6.23;;;;;;;3.91;76.08;100910.44;5052189;28;20691;-53
2023/01/25 05:05:34;;;;;;;10.83;5.37;;;;;;;3.72;75.00;100910.00;5052510;28;20202;-53
2023/01/25 05:08:01;;;;;;;6.23;5.63;;;;;;;3.81;74.60;100910.63;5052142;28;20189;-53
2023/01/25 05:10:28;;;;;;;6.07;5.47;;;;;;;3.76;74.44;100917.06;5050130;28;20223;-53
2023/01/25 05:12:54;;;;;;;8.60;6.20;;;;;;;3.85;74.14;100916.75;5051927;28;20247;-52
2023/01/25 05:15:21;;;;;;;9.40;5.73;;;;;;;3.83;73.70;100928.50;5034555;28;20677;-52
2023/01/25 05:17:49;;;;;;;7.97;5.83;;;;;;;3.82;74.30;100926.75;5041538;28;20200;-53
2023/01/25 05:20:16;;;;;;;7.33;6.37;;;;;;;3.74;74.61;100931.31;5051779;28;20192;-53
2023/01/25 05:22:43;;;;;;;6.97;5.80;;;;;;;3.74;73.96;100928.78;5052137;28;20185;-53
2023/01/25 05:26:59;;;;;;;8.47;5.80;;;;;;;3.59;74.10;100925.22;5051724;28;20198;-53
2023/01/25 05:27:56;;;;;;;8.90;5.70;;;;;;;3.56;74.59;100932.66;5051686;28;20187;-53
2023/01/25 05:30:23;;;;;;;10.30;6.83;;;;;;;3.70;74.62;100931.03;5051754;28;20638;-53
2023/01/25 05:32:51;;;;;;;8.53;6.30;;;;;;;3.70;74.13;100931.03;5051590;28;20190;-53
2023/01/25 05:35:18;;;;;;;9.50;6.77;;;;;;;3.79;73.96;100935.03;5051813;28;20242;-54
2023/01/25 05:37:45;;;;;;;14.90;8.53;;;;;;;3.74;73.96;100933.84;5051845;28;20188;-53
2023/01/25 05:40:12;;;;;;;16.27;8.77;;;;;;;3.76;74.37;100929.78;5051699;28;20204;-52
2023/01/25 05:42:39;;;;;;;16.57;9.50;;;;;;;3.86;73.55;100937.22;5051502;28;20194;-52
2023/01/25 05:45:07;;;;;;;15.80;8.83;;;;;;;3.88;72.84;100934.75;5051545;28;20618;-52
2023/01/25 05:47:34;;;;;;;14.03;8.50;;;;;;;3.85;73.80;100926.94;5051629;28;20188;-53
2023/01/25 05:50:03;;;;;;;11.50;7.47;;;;;;;3.86;72.99;100942.31;5051415;28;20216;-53
2023/01/25 05:52:34;;;;;;;12.47;7.90;;;;;;;3.89;73.47;100946.72;5050061;28;20201;-52
2023/01/25 05:55:01;;;;;;;12.57;6.93;;;;;;;3.95;73.13;100944.56;5050101;28;20195;-53
2023/01/25 05:57:28;;;;;;;13.23;7.00;;;;;;;3.94;73.32;100943.69;5050249;28;20580;-53
2023/01/25 05:59:55;;;;;;;9.27;6.70;;;;;;;3.94;72.21;100946.22;5054861;28;20279;-53
2023/01/25 06:02:22;;;;;;;9.63;7.03;;;;;;;3.97;71.96;100948.97;5055588;28;20192;-53
2023/01/25 06:04:48;;;;;;;9.50;7.10;;;;;;;4.07;71.89;100945.34;5055120;28;20198;-53
2023/01/25 06:07:16;;;;;;;10.83;7.13;;;;;;;4.13;71.92;100943.22;5053633;28;20552;-53
2023/01/25 06:09:43;;;;;;;11.17;7.97;;;;;;;4.02;71.54;100926.38;5053740;28;20693;-52
2023/01/25 06:12:10;;;;;;;10.43;6.93;;;;;;;4.13;71.28;100936.47;5052703;28;20680;-53
2023/01/25 06:14:37;;;;;;;9.57;7.77;;;;;;;4.18;70.71;100935.09;5052269;28;20564;-54
2023/01/25 06:17:05;;;;;;;10.80;6.63;;;;;;;4.14;70.10;100943.31;5050849;28;20208;-54
2023/01/25 06:19:32;;;;;;;10.17;6.50;;;;;;;4.20;69.69;100945.38;5053968;28;20192;-54
2023/01/25 06:21:59;;;;;;;7.50;6.27;;;;;;;4.15;69.97;100937.44;5054107;28;20553;-54
2023/01/25 06:24:27;;;;;;;9.83;6.77;;;;;;;4.09;69.63;100936.19;5054225;28;20191;-53
2023/01/25 06:26:54;;;;;;;8.93;5.83;;;;;;;4.13;70.23;100941.56;5054923;28;20188;-53
2023/01/25 06:29:21;;;;;;;9.37;7.13;;;;;;;4.14;69.54;100943.31;5054783;28;20278;-53
2023/01/25 06:31:48;;;;;;;7.80;6.07;;;;;;;3.91;69.45;100943.47;5054743;28;20217;-53
2023/01/25 06:34:15;;;;;;;8.97;6.33;;;;;;;3.88;69.90;100944.94;5044293;28;20230;-55
2023/01/25 06:36:42;;;;;;;9.53;7.07;;;;;;;3.20;69.82;100844.72;5053179;28;20226;-55
2023/01/25 06:39:09;;;;;;;7.97;6.87;;;;;;;3.70;70.16;100941.19;5054473;28;20196;-54
2023/01/25 06:41:37;;;;;;;12.60;8.47;;;;;;;3.77;70.26;100934.06;5054958;28;20262;-55
2023/01/25 06:44:04;;;;;;;20.93;12.63;;;;;;;3.81;70.41;100945.31;5054161;28;20667;-53
2023/01/25 06:46:32;;;;;;;18.90;12.20;;;;;;;3.90;70.93;100945.94;5054040;28;20558;-56
2023/01/25 06:48:59;;;;;;;19.37;12.40;;;;;;;3.99;69.86;100937.22;5054220;28;20541;-54
2023/01/25 06:51:26;;;;;;;17.77;11.27;;;;;;;4.00;70.55;100949.19;5054662;28;20301;-53
2023/01/25 06:53:53;;;;;;;14.73;11.93;;;;;;;4.11;70.03;100943.13;5051479;28;20666;-54
2023/01/25 06:56:21;;;;;;;13.47;9.63;;;;;;;4.19;69.75;100938.53;5033988;28;20245;-54
2023/01/25 06:58:50;;;;;;;15.00;8.87;;;;;;;4.22;69.47;100943.81;5033922;28;20204;-55
2023/01/25 07:01:19;;;;;;;12.40;9.50;;;;;;;4.17;69.02;100937.56;5034360;28;20567;-55
2023/01/25 07:03:48;;;;;;;13.90;8.43;;;;;;;4.18;69.22;100942.72;5033641;28;20194;-54
2023/01/25 07:06:15;;;;;;;14.87;8.63;;;;;;;4.20;69.36;100954.66;5033751;28;20195;-54
2023/01/25 07:08:43;;;;;;;11.70;8.13;;;;;;;4.19;69.23;100946.16;5033271;28;20674;-54
2023/01/25 07:11:12;;;;;;;10.43;7.83;;;;;;;4.04;68.65;100947.69;5033532;28;20221;-54
2023/01/25 07:13:40;;;;;;;11.43;7.80;;;;;;;3.85;70.41;100947.28;5033770;28;20208;-53
2023/01/25 07:16:13;;;;;;;13.30;7.87;;;;;;;3.87;70.83;100950.81;5033980;28;20277;-53
2023/01/25 07:18:41;;;;;;;10.40;7.33;;;;;;;3.96;70.50;100952.28;5049984;28;20203;-54
2023/01/25 07:21:10;;;;;;;10.73;8.02;;;;;;;3.89;71.32;100954.34;5053657;28;20439;-53
2023/01/25 07:23:37;;;;;;;12.87;8.40;;;;;;;3.94;70.50;100936.06;5053590;28;20196;-54
2023/01/25 07:26:05;;;;;;;9.97;7.33;;;;;;;3.92;69.53;100924.03;5053770;28;20188;-53
2023/01/25 07:28:33;;;;;;;9.07;7.97;;;;;;;4.05;69.37;100946.91;5045869;28;20568;-54
2023/01/25 07:31:04;;;;;;;10.97;8.17;;;;;;;4.15;68.46;100957.78;5052652;28;20220;-54
2023/01/25 07:33:33;;;;;;;13.27;8.03;;;;;;;4.11;68.22;100965.13;5053044;28;20205;-54
2023/01/25 07:36:00;;;;;;;14.35;8.90;;;;;;;4.20;68.98;100958.09;5052563;28;20449;-55
2023/01/25 07:38:27;;;;;;;12.03;8.50;;;;;;;4.27;68.04;100956.81;5048687;28;20242;-54
2023/01/25 07:40:54;;;;;;;12.57;9.07;;;;;;;4.06;68.11;100964.84;5051556;28;20255;-53
2023/01/25 07:43:20;;;;;;;11.17;7.70;;;;;;;4.10;68.29;100966.78;5052972;28;20274;-55
2023/01/25 07:45:48;;;;;;;14.30;9.43;;;;;;;4.06;68.25;100967.38;5053104;28;20196;-53
2023/01/25 07:48:15;;;;;;;14.33;10.40;;;;;;;4.08;68.59;100970.00;5053458;28;20198;-54
2023/01/25 07:50:45;;;;;;;11.47;9.20;;;;;;;3.95;68.33;100934.41;5052736;28;20569;-53
2023/01/25 07:53:12;;;;;;;12.67;8.57;;;;;;;4.11;68.02;100971.09;5047774;28;21333;-53
2023/01/25 07:55:39;;;;;;;13.83;8.43;;;;;;;4.16;68.20;100972.28;5041567;28;20192;-53
2023/01/25 07:58:06;;;;;;;10.03;8.07;;;;;;;4.11;68.09;100973.66;5043614;28;20236;-54
2023/01/25 08:00:33;;;;;;;9.53;7.67;;;;;;;4.16;67.49;100976.47;5051426;28;20201;-53
2023/01/25 08:03:00;;;;;;;11.33;8.10;;;;;;;4.15;66.52;100975.59;5053068;28;20281;-55
2023/01/25 08:05:27;;;;;;;10.97;8.30;;;;;;;4.22;66.84;100964.16;5052711;28;20190;-54
2023/01/25 08:07:55;;;;;;;11.97;7.50;;;;;;;4.13;66.51;100973.72;5052864;28;20199;-54
2023/01/25 08:10:22;;;;;;;10.70;8.10;;;;;;;4.28;66.71;100972.19;5052392;28;20448;-55
2023/01/25 08:12:48;;;;;;;12.87;8.63;;;;;;;4.43;66.20;100974.81;5052814;28;20197;-53
2023/01/25 08:15:15;;;;;;;8.30;6.57;;;;;;;4.53;65.42;100972.97;5052959;28;20190;-55
2023/01/25 08:17:42;;;;;;;11.43;8.17;;;;;;;4.49;65.63;100965.94;5052770;28;20243;-54
2023/01/25 08:20:11;;;;;;;12.93;8.27;;;;;;;4.52;65.97;100962.69;5052561;28;20198;-55
2023/01/25 08:22:38;;;;;;;15.93;8.03;;;;;;;4.61;65.45;100958.19;5051959;28;20233;-55
2023/01/25 08:25:07;;;;;;;17.52;10.80;;;;;;;4.78;64.80;100977.94;5045710;28;20443;-53
2023/01/25 08:27:34;;;;;;;12.77;8.87;;;;;;;4.78;64.97;100960.09;5045041;28;20618;-55
2023/01/25 08:30:01;;;;;;;9.27;7.67;;;;;;;4.90;64.34;100976.16;5042056;28;20217;-55
2023/01/25 08:32:28;;;;;;;14.90;9.90;;;;;;;4.89;64.65;100958.25;5042919;28;20208;-55
2023/01/25 08:34:54;;;;;;;10.10;8.43;;;;;;;4.84;63.60;100973.22;5040564;28;20191;-55
2023/01/25 08:37:21;;;;;;;11.23;7.43;;;;;;;4.82;63.95;100973.91;5040746;28;20224;-54
2023/01/25 08:39:48;;;;;;;9.33;7.63;;;;;;;4.95;64.66;100973.88;5047681;28;20687;-55
2023/01/25 08:42:16;;;;;;;11.40;7.40;;;;;;;5.04;63.96;100960.06;5042514;28;20665;-54
2023/01/25 08:44:43;;;;;;;13.07;8.20;;;;;;;5.13;62.90;100975.91;5040457;28;20202;-54
2023/01/25 08:47:10;;;;;;;11.83;7.83;;;;;;;4.94;63.76;100974.69;5042486;28;20199;-54
2023/01/25 08:49:37;;;;;;;11.83;7.43;;;;;;;4.85;63.68;100951.19;5040663;28;20187;-54
2023/01/25 08:52:04;;;;;;;10.80;7.00;;;;;;;4.69;63.64;100975.72;5039983;28;20203;-54
2023/01/25 08:54:31;;;;;;;11.93;7.77;;;;;;;4.55;64.58;100962.88;5043430;28;20202;-54
2023/01/25 08:56:57;;;;;;;14.93;10.03;;;;;;;4.70;65.60;100966.38;5042087;28;20282;-54
2023/01/25 08:59:26;;;;;;;10.00;8.00;;;;;;;4.73;64.63;100980.19;5042045;28;20194;-54
2023/01/25 09:01:52;;;;;;;10.23;7.57;;;;;;;4.80;65.60;100966.19;5045231;28;20608;-55
2023/01/25 09:04:27;;;;;;;11.50;8.70;;;;;;;4.88;65.33;100967.56;5031816;28;20190;-55
2023/01/25 09:06:53;;;;;;;11.80;8.60;;;;;;;4.91;64.21;100960.09;5032111;28;20196;-54
2023/01/25 09:09:21;;;;;;;15.40;8.73;;;;;;;4.81;65.12;100957.75;5031697;28;20680;-53
2023/01/25 09:11:48;;;;;;;12.07;8.77;;;;;;;4.81;64.76;100949.25;5032474;28;20752;-51
2023/01/25 09:14:15;;;;;;;13.53;8.33;;;;;;;4.81;64.48;100946.72;5031683;28;20192;-52
2023/01/25 09:16:43;;;;;;;10.97;8.80;;;;;;;4.62;64.85;100943.00;5032389;28;20190;-52
2023/01/25 09:19:10;;;;;;;13.03;8.43;;;;;;;4.62;65.99;100943.00;5039196;28;20730;-52
2023/01/25 09:21:37;;;;;;;13.37;9.70;;;;;;;4.79;64.93;100936.41;5041656;28;20197;-54
2023/01/25 09:24:04;;;;;;;12.80;9.47;;;;;;;4.70;65.26;100929.09;5051604;28;20260;-53
2023/01/25 09:26:31;;;;;;;12.53;9.67;;;;;;;4.90;65.56;100943.06;5051305;28;20190;-53
2023/01/25 09:28:57;;;;;;;13.43;9.70;;;;;;;4.90;64.63;100932.88;5051595;28;20240;-55
2023/01/25 09:31:24;;;;;;;11.80;8.63;;;;;;;4.85;65.46;100943.56;5051303;28;20222;-54
2023/01/25 09:33:52;;;;;;;14.47;9.00;;;;;;;4.89;65.33;100931.09;5055300;28;20191;-54
2023/01/25 09:36:20;;;;;;;11.40;8.73;;;;;;;5.02;65.49;100922.56;5055537;28;20222;-53
2023/01/25 09:38:47;;;;;;;11.93;8.43;;;;;;;5.05;64.11;100927.84;5055341;28;20211;-54
2023/01/25 09:41:45;;;;;;;11.27;7.30;;;;;;;5.10;64.33;100917.13;5055622;28;20200;-54
2023/01/25 09:44:26;;;;;;;12.00;8.37;;;;;;;5.15;64.59;100907.22;5055472;28;20201;-53
2023/01/25 09:46:56;;;;;;;12.27;7.93;;;;;;;5.23;65.05;100906.91;5055477;28;20194;-54
2023/01/25 09:49:46;;;;;;;10.40;7.93;;;;;;;5.17;63.73;100888.69;5054990;28;20191;-53
2023/01/25 09:52:29;;;;;;;11.50;7.60;;;;;;;5.27;63.27;100901.16;5054969;28;20701;-54
2023/01/25 09:54:56;;;;;;;11.80;7.73;;;;;;;5.10;63.71;100884.03;5054996;28;20195;-53
2023/01/25 09:57:29;;;;;;;13.77;8.03;;;;;;;5.15;64.25;100903.00;5055164;28;20241;-53
2023/01/25 09:59:57;;;;;;;10.57;8.47;;;;;;;5.22;64.58;100897.47;5054915;28;20726;-54
2023/01/25 10:02:37;;;;;;;9.77;7.77;;;;;;;5.18;64.19;100889.56;5055087;28;20194;-55
2023/01/25 10:05:12;;;;;;;17.95;9.05;;;;;;;5.15;63.99;100891.94;5054580;28;20436;-55
2023/01/25 10:07:56;;;;;;;11.80;8.13;;;;;;;5.15;64.49;100887.72;5054938;28;20194;-55
2023/01/25 10:10:30;;;;;;;8.90;7.20;;;;;;;5.31;64.29;100876.75;5054402;28;20221;-55
2023/01/25 10:12:57;;;;;;;13.30;8.50;;;;;;;5.41;63.69;100876.53;5055510;28;20198;-55
2023/01/25 10:15:32;;;;;;;11.17;8.17;;;;;;;5.27;63.40;100875.69;5054841;28;20192;-54
2023/01/25 10:18:07;;;;;;;12.37;8.70;;;;;;;5.35;63.21;100864.31;5054952;28;20201;-55
2023/01/25 10:20:43;;;;;;;13.73;9.70;;;;;;;5.46;62.71;100866.59;5054746;28;20202;-55
2023/01/25 10:23:32;;;;;;;12.10;8.10;;;;;;;5.41;62.37;100853.59;5054695;28;20194;-54
2023/01/25 10:26:00;;;;;;;10.57;7.53;;;;;;;5.41;62.23;100863.78;5054593;28;20245;-55
2023/01/25 10:28:39;;;;;;;8.70;7.20;;;;;;;5.35;62.75;100856.66;5046667;28;20200;-55
2023/01/25 10:31:10;;;;;;;9.67;6.57;;;;;;;5.31;62.31;100856.38;5042317;28;20227;-55
2023/01/25 10:33:43;;;;;;;9.33;7.50;;;;;;;5.40;62.85;100839.09;5046834;28;20258;-55
2023/01/25 10:36:14;;;;;;;13.77;8.00;;;;;;;5.30;62.24;100801.13;5039622;28;20230;-55
2023/01/25 10:38:44;;;;;;;10.57;8.43;;;;;;;5.56;61.57;100834.06;5034186;28;20462;-54
2023/01/25 10:41:17;;;;;;;15.70;9.93;;;;;;;5.58;61.89;100835.03;5034446;28;20202;-55
2023/01/25 10:43:44;;;;;;;15.50;10.63;;;;;;;5.70;61.54;100828.09;5049236;28;20190;-54
2023/01/25 10:46:25;;;;;;;14.97;7.77;;;;;;;5.62;61.15;100823.34;5041118;28;20633;-55
2023/01/25 10:48:52;;;;;;;10.17;7.47;;;;;;;5.64;61.39;100821.75;5041614;28;20204;-54
2023/01/25 10:51:38;;;;;;;9.87;7.53;;;;;;;5.80;61.17;100821.81;5053753;28;20233;-55
2023/01/25 10:54:06;;;;;;;14.57;8.87;;;;;;;5.85;61.26;100817.91;5053401;28;20195;-55
2023/01/25 10:56:35;;;;;;;13.57;8.27;;;;;;;5.92;60.86;100815.78;5054710;28;20262;-54
2023/01/25 10:59:17;;;;;;;10.67;8.17;;;;;;;6.06;60.75;100821.66;5054069;28;20202;-54
2023/01/25 11:01:44;;;;;;;13.37;10.40;;;;;;;6.15;60.17;100816.19;5054043;28;20188;-54
2023/01/25 11:04:32;;;;;;;12.87;8.30;;;;;;;6.17;60.13;100812.03;5053941;28;20666;-54
2023/01/25 11:07:01;;;;;;;12.20;8.00;;;;;;;6.20;59.88;100807.09;5053757;28;20664;-54
2023/01/25 11:09:39;;;;;;;11.60;8.03;;;;;;;6.28;60.04;100801.63;5053334;28;20203;-54
2023/01/25 11:12:17;;;;;;;11.30;8.03;;;;;;;6.07;59.68;100804.69;5053115;28;20228;-54
2023/01/25 11:14:44;;;;;;;10.57;8.27;;;;;;;5.77;60.10;100779.19;5033814;28;20743;-54
2023/01/25 11:17:24;;;;;;;9.53;7.17;;;;;;;5.83;61.60;100794.84;5033568;28;20611;-54
2023/01/25 11:20:06;;;;;;;12.73;8.57;;;;;;;5.61;62.21;100783.34;5033960;28;20192;-54
2023/01/25 11:22:35;;;;;;;10.97;7.70;;;;;;;5.52;61.85;100787.94;5033781;28;20728;-54
2023/01/25 11:25:27;;;;;;;13.83;8.67;;;;;;;5.29;63.37;100784.06;5044332;28;20575;-54
2023/01/25 11:28:11;;;;;;;10.83;7.60;;;;;;;5.41;63.41;100745.66;5034538;28;20205;-53
2023/01/25 11:30:38;;;;;;;13.10;9.27;;;;;;;5.61;62.60;100761.28;5047786;28;20264;-54
2023/01/25 11:33:11;;;;;;;11.63;8.10;;;;;;;5.71;62.70;100767.78;5053218;28;20193;-53
2023/01/25 11:35:56;;;;;;;10.53;7.80;;;;;;;5.61;63.04;100768.03;5053326;28;20244;-54
2023/01/25 11:38:24;;;;;;;8.00;7.03;;;;;;;5.42;62.73;100760.16;5036038;28;20202;-52